WI79 weather

Town Line Airport
Greenwood, Wisconsin, United States

Public forecast

Using degrees Fahrenheit for public forecast. Weather courtesy of forecast.io.

METAR (pilot weather report)

Closest report is Taylor County Airport, 18.4 nm (34.0 km) NE. Retrieved 2019/08/21 06:15 UTC (0 seconds ago):

KMDZ 210615Z AUTO 30005KT 10SM BKN023 BKN034 OVC044 18/18 A2999 RMK AO2 T01830175

TAF (pilot weather forecast)

Closest forecast is Central Wisconsin Airport, 38.2 nm (70.7 km) E. Retrieved 2019/08/21 06:27 UTC (0 seconds ago):

TAF KCWA 210525Z 2106/2206 24005KT P6SM SCT035 BKN050 TEMPO 2106/2109 -SHRA BKN035 FM210900 33006KT P6SM SCT030 FM211500 32008G15KT P6SM SCT035 FM212300 33005KT P6SM SKC